Requena, Spain
Current Conditions -  °F | °C
As of 2:00 PM on Friday 24 Oct 2014 (Local Time) from LEVC Reporting Station
Clear Clear  
Wind Chill: 84°   Ceiling: Unl
Heat Index: 84°   Visibility: 6mi
Dew Point: 37°   Wind: 3mph
Humidity: 19%   Direction: 190°S
Pressure: 30.03"   Gusts: NA
Location:  39.49°N, 1.1°W
Report Text: LEVC 241200Z 19003KT 150V230 CAVOK 29/03 Q1017 NOSIG
Loading
Personal Weather Stations






























Interactive Weather Map
Tropical Storm Tracking
New forecast layout! Learn more

10-Day Weather Forecast

Advertisements
Track Severe Weather on mobile